Terminal Aerodrome Forecast
Issued by NWS

Home | Current Version | Previous Version | Text Only | Print | Product List | Glossary On
Versions: 1 2 3 4 5 6 7 8 9 10 11 12 13 14 15
000
FTUS42 KTBW 241853 AAA
TAFLAL
TAF AMD
KLAL 241853Z 2419/2518 11008KT P6SM VCTS SCT030CB BKN070
      TEMPO 2419/2421 3SM -TSRA BKN020CB
     FM250000 VRB03KT P6SM SCT030 SCT150=

USA.gov is the U.S. government's official web portal to all federal, state and local government web resources and services.